sensor_id;sensor_type;location;lat;lon;timestamp;temperature;humidity
55121;DHT22;41019;48.512;9.036;2023-01-10T00:01:39;5.90;99.30
55121;DHT22;41019;48.512;9.036;2023-01-10T00:04:05;5.90;99.50
55121;DHT22;41019;48.512;9.036;2023-01-10T00:06:31;5.90;99.50
55121;DHT22;41019;48.512;9.036;2023-01-10T00:08:57;5.90;99.50
55121;DHT22;41019;48.512;9.036;2023-01-10T00:11:23;5.90;99.30
55121;DHT22;41019;48.512;9.036;2023-01-10T00:14:08;5.90;99.20
55121;DHT22;41019;48.512;9.036;2023-01-10T00:16:35;5.90;99.50
55121;DHT22;41019;48.512;9.036;2023-01-10T00:19:04;5.80;99.80
55121;DHT22;41019;48.512;9.036;2023-01-10T00:21:30;5.80;99.90
55121;DHT22;41019;48.512;9.036;2023-01-10T00:23:56;5.80;99.90
55121;DHT22;41019;48.512;9.036;2023-01-10T00:26:25;5.90;99.90
55121;DHT22;41019;48.512;9.036;2023-01-10T00:28:51;5.80;99.90
55121;DHT22;41019;48.512;9.036;2023-01-10T00:31:16;5.80;99.90
55121;DHT22;41019;48.512;9.036;2023-01-10T00:33:42;5.80;99.90
55121;DHT22;41019;48.512;9.036;2023-01-10T00:36:09;5.80;99.90
55121;DHT22;41019;48.512;9.036;2023-01-10T00:38:35;5.80;99.90
55121;DHT22;41019;48.512;9.036;2023-01-10T00:41:02;5.70;99.90
55121;DHT22;41019;48.512;9.036;2023-01-10T00:43:48;5.70;99.90
55121;DHT22;41019;48.512;9.036;2023-01-10T00:46:24;5.70;99.90
55121;DHT22;41019;48.512;9.036;2023-01-10T00:48:50;5.70;99.90
55121;DHT22;41019;48.512;9.036;2023-01-10T00:51:18;5.70;99.90
55121;DHT22;41019;48.512;9.036;2023-01-10T00:53:44;5.70;99.90
55121;DHT22;41019;48.512;9.036;2023-01-10T00:56:10;5.70;99.90
55121;DHT22;41019;48.512;9.036;2023-01-10T00:58:36;5.60;99.90
55121;DHT22;41019;48.512;9.036;2023-01-10T01:01:02;5.60;99.90
55121;DHT22;41019;48.512;9.036;2023-01-10T01:03:28;5.60;99.90
55121;DHT22;41019;48.512;9.036;2023-01-10T01:05:54;5.50;99.90
55121;DHT22;41019;48.512;9.036;2023-01-10T01:08:20;5.60;99.90
55121;DHT22;41019;48.512;9.036;2023-01-10T01:10:46;5.50;99.90
55121;DHT22;41019;48.512;9.036;2023-01-10T01:13:15;5.50;99.90
55121;DHT22;41019;48.512;9.036;2023-01-10T01:15:42;5.50;99.90
55121;DHT22;41019;48.512;9.036;2023-01-10T01:18:12;5.50;99.90
55121;DHT22;41019;48.512;9.036;2023-01-10T01:20:40;5.50;99.90
55121;DHT22;41019;48.512;9.036;2023-01-10T01:23:06;6.00;99.90
55121;DHT22;41019;48.512;9.036;2023-01-10T01:25:32;5.50;99.90
55121;DHT22;41019;48.512;9.036;2023-01-10T01:27:58;5.40;99.90
55121;DHT22;41019;48.512;9.036;2023-01-10T01:30:25;5.40;99.90
55121;DHT22;41019;48.512;9.036;2023-01-10T01:32:50;5.40;99.90
55121;DHT22;41019;48.512;9.036;2023-01-10T01:35:17;5.40;99.90
55121;DHT22;41019;48.512;9.036;2023-01-10T01:37:43;5.40;99.90
55121;DHT22;41019;48.512;9.036;2023-01-10T01:40:13;5.40;99.90
55121;DHT22;41019;48.512;9.036;2023-01-10T01:42:41;5.40;99.90
55121;DHT22;41019;48.512;9.036;2023-01-10T01:50:28;5.40;99.90
55121;DHT22;41019;48.512;9.036;2023-01-10T01:52:59;5.40;99.90
55121;DHT22;41019;48.512;9.036;2023-01-10T01:55:28;5.50;99.90
55121;DHT22;41019;48.512;9.036;2023-01-10T01:58:00;5.40;99.90
55121;DHT22;41019;48.512;9.036;2023-01-10T02:00:29;5.40;99.90
55121;DHT22;41019;48.512;9.036;2023-01-10T02:02:58;5.50;99.90
55121;DHT22;41019;48.512;9.036;2023-01-10T02:05:25;5.40;99.90
55121;DHT22;41019;48.512;9.036;2023-01-10T02:07:54;5.50;99.90
55121;DHT22;41019;48.512;9.036;2023-01-10T02:13:11;5.50;99.90
55121;DHT22;41019;48.512;9.036;2023-01-10T02:15:39;5.50;99.90
55121;DHT22;41019;48.512;9.036;2023-01-10T02:18:05;5.50;99.90
55121;DHT22;41019;48.512;9.036;2023-01-10T02:20:50;5.40;99.90
55121;DHT22;41019;48.512;9.036;2023-01-10T02:23:42;5.50;99.90
55121;DHT22;41019;48.512;9.036;2023-01-10T02:43:20;5.40;99.90
55121;DHT22;41019;48.512;9.036;2023-01-10T02:46:06;5.40;99.90
55121;DHT22;41019;48.512;9.036;2023-01-10T02:48:33;5.40;99.90
55121;DHT22;41019;48.512;9.036;2023-01-10T02:51:03;5.30;99.90
55121;DHT22;41019;48.512;9.036;2023-01-10T02:53:36;5.30;99.90
55121;DHT22;41019;48.512;9.036;2023-01-10T03:01:59;5.30;99.90
55121;DHT22;41019;48.512;9.036;2023-01-10T03:10:15;5.30;99.90
55121;DHT22;41019;48.512;9.036;2023-01-10T03:12:47;5.30;99.90
55121;DHT22;41019;48.512;9.036;2023-01-10T03:15:18;5.30;99.90
55121;DHT22;41019;48.512;9.036;2023-01-10T03:17:50;5.30;99.90
55121;DHT22;41019;48.512;9.036;2023-01-10T03:20:22;5.30;99.90
55121;DHT22;41019;48.512;9.036;2023-01-10T03:22:52;5.30;99.90
55121;DHT22;41019;48.512;9.036;2023-01-10T03:25:27;5.30;99.90
55121;DHT22;41019;48.512;9.036;2023-01-10T03:30:36;5.30;99.90
55121;DHT22;41019;48.512;9.036;2023-01-10T03:33:05;5.30;99.90
55121;DHT22;41019;48.512;9.036;2023-01-10T03:38:49;5.30;99.90
55121;DHT22;41019;48.512;9.036;2023-01-10T03:41:32;5.30;99.90
55121;DHT22;41019;48.512;9.036;2023-01-10T03:47:32;5.30;99.90
55121;DHT22;41019;48.512;9.036;2023-01-10T03:50:23;5.30;99.90
55121;DHT22;41019;48.512;9.036;2023-01-10T03:52:50;5.20;99.90
55121;DHT22;41019;48.512;9.036;2023-01-10T03:55:26;5.20;99.90
55121;DHT22;41019;48.512;9.036;2023-01-10T03:57:53;5.20;99.90
55121;DHT22;41019;48.512;9.036;2023-01-10T04:00:20;5.20;99.90
55121;DHT22;41019;48.512;9.036;2023-01-10T04:02:45;5.30;99.90
55121;DHT22;41019;48.512;9.036;2023-01-10T04:05:14;5.30;99.90
55121;DHT22;41019;48.512;9.036;2023-01-10T04:07:40;5.20;99.90
55121;DHT22;41019;48.512;9.036;2023-01-10T04:10:07;5.20;99.90
55121;DHT22;41019;48.512;9.036;2023-01-10T04:12:33;5.20;99.90
55121;DHT22;41019;48.512;9.036;2023-01-10T04:14:59;5.30;99.90
55121;DHT22;41019;48.512;9.036;2023-01-10T04:17:26;5.20;99.90
55121;DHT22;41019;48.512;9.036;2023-01-10T04:19:52;5.20;99.90
55121;DHT22;41019;48.512;9.036;2023-01-10T04:22:19;5.20;99.90
55121;DHT22;41019;48.512;9.036;2023-01-10T04:24:45;5.20;99.90
55121;DHT22;41019;48.512;9.036;2023-01-10T04:27:13;5.20;99.90
55121;DHT22;41019;48.512;9.036;2023-01-10T04:29:39;5.20;99.90
55121;DHT22;41019;48.512;9.036;2023-01-10T04:32:05;5.20;99.90
55121;DHT22;41019;48.512;9.036;2023-01-10T04:34:31;5.20;99.90
55121;DHT22;41019;48.512;9.036;2023-01-10T04:36:57;5.20;99.90
55121;DHT22;41019;48.512;9.036;2023-01-10T04:39:22;5.20;99.90
55121;DHT22;41019;48.512;9.036;2023-01-10T04:41:48;5.20;99.90
55121;DHT22;41019;48.512;9.036;2023-01-10T04:44:14;5.20;99.90
55121;DHT22;41019;48.512;9.036;2023-01-10T04:46:41;5.20;99.90
55121;DHT22;41019;48.512;9.036;2023-01-10T04:49:09;5.10;99.90
55121;DHT22;41019;48.512;9.036;2023-01-10T04:51:34;5.20;99.90
55121;DHT22;41019;48.512;9.036;2023-01-10T04:54:01;5.20;99.90
55121;DHT22;41019;48.512;9.036;2023-01-10T04:56:26;5.20;99.90
55121;DHT22;41019;48.512;9.036;2023-01-10T04:58:52;5.20;99.90
55121;DHT22;41019;48.512;9.036;2023-01-10T05:01:21;5.20;99.90
55121;DHT22;41019;48.512;9.036;2023-01-10T05:03:48;5.20;99.90
55121;DHT22;41019;48.512;9.036;2023-01-10T05:06:15;5.20;99.90
55121;DHT22;41019;48.512;9.036;2023-01-10T05:08:42;5.20;99.90
55121;DHT22;41019;48.512;9.036;2023-01-10T05:11:08;5.20;99.90
55121;DHT22;41019;48.512;9.036;2023-01-10T05:13:34;5.10;99.90
55121;DHT22;41019;48.512;9.036;2023-01-10T05:16:01;5.10;99.90
55121;DHT22;41019;48.512;9.036;2023-01-10T05:18:28;5.10;99.90
55121;DHT22;41019;48.512;9.036;2023-01-10T05:21:06;5.10;99.90
55121;DHT22;41019;48.512;9.036;2023-01-10T05:23:33;5.10;99.90
55121;DHT22;41019;48.512;9.036;2023-01-10T05:26:11;5.00;99.90
55121;DHT22;41019;48.512;9.036;2023-01-10T05:28:39;5.00;99.90
55121;DHT22;41019;48.512;9.036;2023-01-10T05:31:10;5.10;99.90
55121;DHT22;41019;48.512;9.036;2023-01-10T05:33:37;5.10;99.90
55121;DHT22;41019;48.512;9.036;2023-01-10T05:36:04;5.10;99.90
55121;DHT22;41019;48.512;9.036;2023-01-10T05:38:32;5.10;99.90
55121;DHT22;41019;48.512;9.036;2023-01-10T05:40:59;5.10;99.90
55121;DHT22;41019;48.512;9.036;2023-01-10T05:43:26;5.10;99.90
55121;DHT22;41019;48.512;9.036;2023-01-10T05:45:52;5.10;99.90
55121;DHT22;41019;48.512;9.036;2023-01-10T05:48:18;5.10;99.90
55121;DHT22;41019;48.512;9.036;2023-01-10T05:50:44;5.10;99.90
55121;DHT22;41019;48.512;9.036;2023-01-10T05:53:10;5.10;99.90
55121;DHT22;41019;48.512;9.036;2023-01-10T05:55:36;5.10;99.90
55121;DHT22;41019;48.512;9.036;2023-01-10T05:58:02;5.10;99.90
55121;DHT22;41019;48.512;9.036;2023-01-10T06:00:28;5.20;99.90
55121;DHT22;41019;48.512;9.036;2023-01-10T06:02:54;5.20;99.90
55121;DHT22;41019;48.512;9.036;2023-01-10T06:05:22;5.20;99.90
55121;DHT22;41019;48.512;9.036;2023-01-10T06:07:48;5.20;99.90
55121;DHT22;41019;48.512;9.036;2023-01-10T06:10:15;5.20;99.90
55121;DHT22;41019;48.512;9.036;2023-01-10T06:12:41;5.20;99.90
55121;DHT22;41019;48.512;9.036;2023-01-10T06:15:08;5.30;99.90
55121;DHT22;41019;48.512;9.036;2023-01-10T06:17:34;5.30;99.90
55121;DHT22;41019;48.512;9.036;2023-01-10T06:20:00;5.30;99.90
55121;DHT22;41019;48.512;9.036;2023-01-10T06:22:26;5.30;99.90
55121;DHT22;41019;48.512;9.036;2023-01-10T06:24:53;5.30;99.90
55121;DHT22;41019;48.512;9.036;2023-01-10T06:27:22;5.30;99.90
55121;DHT22;41019;48.512;9.036;2023-01-10T06:29:48;5.30;99.90
55121;DHT22;41019;48.512;9.036;2023-01-10T06:32:14;5.30;99.90
55121;DHT22;41019;48.512;9.036;2023-01-10T06:34:39;5.30;99.90
55121;DHT22;41019;48.512;9.036;2023-01-10T06:37:05;5.20;99.90
55121;DHT22;41019;48.512;9.036;2023-01-10T06:39:32;5.30;99.90
55121;DHT22;41019;48.512;9.036;2023-01-10T06:41:59;5.20;99.90
55121;DHT22;41019;48.512;9.036;2023-01-10T06:44:25;5.20;99.90
55121;DHT22;41019;48.512;9.036;2023-01-10T06:46:51;5.20;99.90
55121;DHT22;41019;48.512;9.036;2023-01-10T06:49:17;5.20;99.90
55121;DHT22;41019;48.512;9.036;2023-01-10T06:51:43;5.20;99.90
55121;DHT22;41019;48.512;9.036;2023-01-10T06:54:09;5.20;99.90
55121;DHT22;41019;48.512;9.036;2023-01-10T06:56:35;5.20;99.90
55121;DHT22;41019;48.512;9.036;2023-01-10T06:59:01;5.20;99.90
55121;DHT22;41019;48.512;9.036;2023-01-10T07:01:27;5.20;99.90
55121;DHT22;41019;48.512;9.036;2023-01-10T07:03:53;5.10;99.90
55121;DHT22;41019;48.512;9.036;2023-01-10T07:06:19;5.10;99.90
55121;DHT22;41019;48.512;9.036;2023-01-10T07:08:46;5.10;99.90
55121;DHT22;41019;48.512;9.036;2023-01-10T07:11:14;5.10;99.90
55121;DHT22;41019;48.512;9.036;2023-01-10T07:13:41;5.00;99.90
55121;DHT22;41019;48.512;9.036;2023-01-10T07:16:10;5.00;99.90
55121;DHT22;41019;48.512;9.036;2023-01-10T07:18:38;5.10;99.90
55121;DHT22;41019;48.512;9.036;2023-01-10T07:21:05;5.10;99.90
55121;DHT22;41019;48.512;9.036;2023-01-10T07:23:31;5.10;99.90
55121;DHT22;41019;48.512;9.036;2023-01-10T07:25:57;5.10;99.90
55121;DHT22;41019;48.512;9.036;2023-01-10T07:28:23;5.10;99.90
55121;DHT22;41019;48.512;9.036;2023-01-10T07:30:49;5.10;99.90
55121;DHT22;41019;48.512;9.036;2023-01-10T07:33:15;5.10;99.90
55121;DHT22;41019;48.512;9.036;2023-01-10T07:35:42;5.10;99.90
55121;DHT22;41019;48.512;9.036;2023-01-10T07:38:08;5.20;99.90
55121;DHT22;41019;48.512;9.036;2023-01-10T07:40:34;5.20;99.90
55121;DHT22;41019;48.512;9.036;2023-01-10T07:43:01;5.20;99.90
55121;DHT22;41019;48.512;9.036;2023-01-10T07:45:29;5.20;99.90
55121;DHT22;41019;48.512;9.036;2023-01-10T07:47:59;5.20;99.90
55121;DHT22;41019;48.512;9.036;2023-01-10T07:50:28;5.20;99.90
55121;DHT22;41019;48.512;9.036;2023-01-10T07:52:54;5.30;99.80
55121;DHT22;41019;48.512;9.036;2023-01-10T07:55:21;5.30;99.80
55121;DHT22;41019;48.512;9.036;2023-01-10T07:57:49;5.30;99.70
55121;DHT22;41019;48.512;9.036;2023-01-10T08:00:17;5.30;99.50
55121;DHT22;41019;48.512;9.036;2023-01-10T08:02:43;5.30;99.80
55121;DHT22;41019;48.512;9.036;2023-01-10T08:05:10;5.40;99.50
55121;DHT22;41019;48.512;9.036;2023-01-10T08:07:36;5.40;99.50
55121;DHT22;41019;48.512;9.036;2023-01-10T08:10:05;5.40;99.30
55121;DHT22;41019;48.512;9.036;2023-01-10T08:12:31;5.40;99.30
55121;DHT22;41019;48.512;9.036;2023-01-10T08:14:57;5.40;99.30
55121;DHT22;41019;48.512;9.036;2023-01-10T08:17:23;5.40;99.40
55121;DHT22;41019;48.512;9.036;2023-01-10T08:19:50;5.40;99.30
55121;DHT22;41019;48.512;9.036;2023-01-10T08:22:15;5.50;98.80
55121;DHT22;41019;48.512;9.036;2023-01-10T08:24:41;5.50;98.90
55121;DHT22;41019;48.512;9.036;2023-01-10T08:27:07;5.50;98.20
55121;DHT22;41019;48.512;9.036;2023-01-10T08:29:33;5.50;98.50
55121;DHT22;41019;48.512;9.036;2023-01-10T08:31:59;5.50;98.50
55121;DHT22;41019;48.512;9.036;2023-01-10T08:34:26;5.50;98.60
55121;DHT22;41019;48.512;9.036;2023-01-10T08:36:53;5.50;99.00
55121;DHT22;41019;48.512;9.036;2023-01-10T08:39:20;5.60;99.20
55121;DHT22;41019;48.512;9.036;2023-01-10T08:41:48;5.60;98.70
55121;DHT22;41019;48.512;9.036;2023-01-10T08:44:14;5.60;98.80
55121;DHT22;41019;48.512;9.036;2023-01-10T08:46:41;5.60;98.90
55121;DHT22;41019;48.512;9.036;2023-01-10T08:49:08;5.70;98.90
55121;DHT22;41019;48.512;9.036;2023-01-10T08:51:34;5.70;99.00
55121;DHT22;41019;48.512;9.036;2023-01-10T08:54:01;5.70;99.00
55121;DHT22;41019;48.512;9.036;2023-01-10T08:56:27;5.70;98.80
55121;DHT22;41019;48.512;9.036;2023-01-10T08:58:53;5.70;98.80
55121;DHT22;41019;48.512;9.036;2023-01-10T09:01:19;5.80;98.90
55121;DHT22;41019;48.512;9.036;2023-01-10T09:03:45;5.80;99.30
55121;DHT22;41019;48.512;9.036;2023-01-10T09:06:11;5.90;99.40
55121;DHT22;41019;48.512;9.036;2023-01-10T09:08:37;5.90;99.20
55121;DHT22;41019;48.512;9.036;2023-01-10T09:11:04;6.00;98.60
55121;DHT22;41019;48.512;9.036;2023-01-10T09:13:30;6.00;98.20
55121;DHT22;41019;48.512;9.036;2023-01-10T09:15:58;6.10;98.40
55121;DHT22;41019;48.512;9.036;2023-01-10T09:18:25;6.20;98.30
55121;DHT22;41019;48.512;9.036;2023-01-10T09:20:52;6.20;98.00
55121;DHT22;41019;48.512;9.036;2023-01-10T09:23:19;6.30;98.10
55121;DHT22;41019;48.512;9.036;2023-01-10T09:25:49;6.30;97.90
55121;DHT22;41019;48.512;9.036;2023-01-10T09:28:16;6.40;97.60
55121;DHT22;41019;48.512;9.036;2023-01-10T09:30:43;6.40;97.30
55121;DHT22;41019;48.512;9.036;2023-01-10T09:33:09;6.50;96.90
55121;DHT22;41019;48.512;9.036;2023-01-10T09:35:37;6.50;97.00
55121;DHT22;41019;48.512;9.036;2023-01-10T09:38:06;6.50;97.20
55121;DHT22;41019;48.512;9.036;2023-01-10T09:51:43;6.60;96.80
55121;DHT22;41019;48.512;9.036;2023-01-10T09:54:30;6.60;96.70
55121;DHT22;41019;48.512;9.036;2023-01-10T09:56:59;6.60;96.70
55121;DHT22;41019;48.512;9.036;2023-01-10T09:59:35;6.60;96.50
55121;DHT22;41019;48.512;9.036;2023-01-10T10:02:29;6.60;96.80
55121;DHT22;41019;48.512;9.036;2023-01-10T10:05:17;6.70;96.20
55121;DHT22;41019;48.512;9.036;2023-01-10T10:07:45;6.70;96.00
55121;DHT22;41019;48.512;9.036;2023-01-10T10:10:39;6.70;96.20
55121;DHT22;41019;48.512;9.036;2023-01-10T10:19:59;6.80;96.20
55121;DHT22;41019;48.512;9.036;2023-01-10T10:22:55;6.80;95.80
55121;DHT22;41019;48.512;9.036;2023-01-10T10:25:47;6.90;95.60
55121;DHT22;41019;48.512;9.036;2023-01-10T10:36:45;7.10;93.90
55121;DHT22;41019;48.512;9.036;2023-01-10T10:39:17;7.20;93.70
55121;DHT22;41019;48.512;9.036;2023-01-10T10:41:48;7.20;93.40
55121;DHT22;41019;48.512;9.036;2023-01-10T10:44:29;7.20;93.30
55121;DHT22;41019;48.512;9.036;2023-01-10T10:46:57;7.30;93.30
55121;DHT22;41019;48.512;9.036;2023-01-10T10:49:42;7.90;93.40
55121;DHT22;41019;48.512;9.036;2023-01-10T10:52:23;7.50;92.50
55121;DHT22;41019;48.512;9.036;2023-01-10T10:54:51;7.50;92.20
55121;DHT22;41019;48.512;9.036;2023-01-10T10:57:19;7.60;92.30
55121;DHT22;41019;48.512;9.036;2023-01-10T10:59:47;7.60;92.30
55121;DHT22;41019;48.512;9.036;2023-01-10T11:02:23;7.70;92.00
55121;DHT22;41019;48.512;9.036;2023-01-10T11:04:56;7.70;92.00
55121;DHT22;41019;48.512;9.036;2023-01-10T11:07:23;7.80;91.90
55121;DHT22;41019;48.512;9.036;2023-01-10T11:09:53;7.80;91.30
55121;DHT22;41019;48.512;9.036;2023-01-10T11:12:31;7.80;91.00
55121;DHT22;41019;48.512;9.036;2023-01-10T11:14:58;7.80;91.30
55121;DHT22;41019;48.512;9.036;2023-01-10T11:17:27;7.80;91.30
55121;DHT22;41019;48.512;9.036;2023-01-10T11:20:02;7.80;90.90
55121;DHT22;41019;48.512;9.036;2023-01-10T11:22:48;7.90;91.30
55121;DHT22;41019;48.512;9.036;2023-01-10T11:25:17;7.80;91.30
55121;DHT22;41019;48.512;9.036;2023-01-10T11:27:51;7.80;90.90
55121;DHT22;41019;48.512;9.036;2023-01-10T11:30:24;7.80;91.40
55121;DHT22;41019;48.512;9.036;2023-01-10T11:32:59;7.90;91.60
55121;DHT22;41019;48.512;9.036;2023-01-10T11:35:35;7.90;90.80
55121;DHT22;41019;48.512;9.036;2023-01-10T11:40:30;8.00;90.70
55121;DHT22;41019;48.512;9.036;2023-01-10T11:42:58;8.00;90.70
55121;DHT22;41019;48.512;9.036;2023-01-10T11:45:25;8.00;91.00
55121;DHT22;41019;48.512;9.036;2023-01-10T11:47:57;8.00;90.80
55121;DHT22;41019;48.512;9.036;2023-01-10T11:50:30;8.10;91.00
55121;DHT22;41019;48.512;9.036;2023-01-10T11:52:57;8.10;91.00
55121;DHT22;41019;48.512;9.036;2023-01-10T11:55:26;8.10;90.90
55121;DHT22;41019;48.512;9.036;2023-01-10T11:58:01;8.20;90.80
55121;DHT22;41019;48.512;9.036;2023-01-10T12:00:47;8.20;91.20
55121;DHT22;41019;48.512;9.036;2023-01-10T12:03:26;8.20;90.80
55121;DHT22;41019;48.512;9.036;2023-01-10T12:05:58;8.20;90.20
55121;DHT22;41019;48.512;9.036;2023-01-10T12:08:33;8.30;90.10
55121;DHT22;41019;48.512;9.036;2023-01-10T12:11:04;8.30;89.30
55121;DHT22;41019;48.512;9.036;2023-01-10T12:13:44;8.40;90.90
55121;DHT22;41019;48.512;9.036;2023-01-10T12:16:32;8.50;90.60
55121;DHT22;41019;48.512;9.036;2023-01-10T12:19:05;8.60;90.00
55121;DHT22;41019;48.512;9.036;2023-01-10T12:21:41;8.70;89.80
55121;DHT22;41019;48.512;9.036;2023-01-10T12:26:36;8.80;87.90
55121;DHT22;41019;48.512;9.036;2023-01-10T12:29:11;8.80;87.40
55121;DHT22;41019;48.512;9.036;2023-01-10T12:31:40;8.90;87.40
55121;DHT22;41019;48.512;9.036;2023-01-10T12:34:16;8.90;86.60
55121;DHT22;41019;48.512;9.036;2023-01-10T12:39:32;8.90;87.20
55121;DHT22;41019;48.512;9.036;2023-01-10T12:44:59;8.80;85.80
55121;DHT22;41019;48.512;9.036;2023-01-10T12:50:02;8.80;86.30
55121;DHT22;41019;48.512;9.036;2023-01-10T12:52:47;8.70;86.50
55121;DHT22;41019;48.512;9.036;2023-01-10T12:55:18;8.60;86.00
55121;DHT22;41019;48.512;9.036;2023-01-10T12:57:52;8.60;85.60
55121;DHT22;41019;48.512;9.036;2023-01-10T13:02:59;8.50;87.20
55121;DHT22;41019;48.512;9.036;2023-01-10T13:05:29;8.50;87.00
55121;DHT22;41019;48.512;9.036;2023-01-10T13:08:02;8.50;87.20
55121;DHT22;41019;48.512;9.036;2023-01-10T13:10:30;8.40;87.90
55121;DHT22;41019;48.512;9.036;2023-01-10T13:13:05;8.40;88.20
55121;DHT22;41019;48.512;9.036;2023-01-10T13:15:59;8.40;88.10
55121;DHT22;41019;48.512;9.036;2023-01-10T13:18:30;8.40;88.60
55121;DHT22;41019;48.512;9.036;2023-01-10T13:21:06;8.40;87.50
55121;DHT22;41019;48.512;9.036;2023-01-10T13:23:39;8.40;87.30
55121;DHT22;41019;48.512;9.036;2023-01-10T13:26:11;8.60;86.60
55121;DHT22;41019;48.512;9.036;2023-01-10T13:28:44;8.50;84.30
55121;DHT22;41019;48.512;9.036;2023-01-10T13:31:29;8.50;82.50
55121;DHT22;41019;48.512;9.036;2023-01-10T13:34:02;8.50;83.20
55121;DHT22;41019;48.512;9.036;2023-01-10T13:36:41;8.60;82.60
55121;DHT22;41019;48.512;9.036;2023-01-10T13:39:28;8.60;81.60
55121;DHT22;41019;48.512;9.036;2023-01-10T13:56:00;8.60;78.70
55121;DHT22;41019;48.512;9.036;2023-01-10T13:58:40;8.60;80.30
55121;DHT22;41019;48.512;9.036;2023-01-10T14:01:29;8.40;79.70
55121;DHT22;41019;48.512;9.036;2023-01-10T14:04:21;8.50;79.90
55121;DHT22;41019;48.512;9.036;2023-01-10T14:06:54;8.50;79.40
55121;DHT22;41019;48.512;9.036;2023-01-10T14:11:57;8.50;79.10
55121;DHT22;41019;48.512;9.036;2023-01-10T14:19:46;8.40;78.50
55121;DHT22;41019;48.512;9.036;2023-01-10T14:22:27;8.30;78.40
55121;DHT22;41019;48.512;9.036;2023-01-10T14:24:58;8.20;79.30
55121;DHT22;41019;48.512;9.036;2023-01-10T14:27:40;8.20;79.20
55121;DHT22;41019;48.512;9.036;2023-01-10T14:30:25;8.20;78.20
55121;DHT22;41019;48.512;9.036;2023-01-10T14:32:55;8.10;78.40
55121;DHT22;41019;48.512;9.036;2023-01-10T14:35:29;8.00;78.30
55121;DHT22;41019;48.512;9.036;2023-01-10T14:38:00;8.00;78.20
55121;DHT22;41019;48.512;9.036;2023-01-10T14:40:49;7.90;78.80
55121;DHT22;41019;48.512;9.036;2023-01-10T14:43:23;7.90;79.20
55121;DHT22;41019;48.512;9.036;2023-01-10T14:46:03;7.80;79.50
55121;DHT22;41019;48.512;9.036;2023-01-10T14:48:33;7.80;80.50
55121;DHT22;41019;48.512;9.036;2023-01-10T14:51:26;7.70;80.90
55121;DHT22;41019;48.512;9.036;2023-01-10T14:54:08;7.70;80.00
55121;DHT22;41019;48.512;9.036;2023-01-10T14:56:41;7.70;80.60
55121;DHT22;41019;48.512;9.036;2023-01-10T15:01:50;7.50;81.70
55121;DHT22;41019;48.512;9.036;2023-01-10T15:04:18;7.50;82.90
55121;DHT22;41019;48.512;9.036;2023-01-10T15:07:10;7.50;82.50
55121;DHT22;41019;48.512;9.036;2023-01-10T15:09:46;7.50;82.80
55121;DHT22;41019;48.512;9.036;2023-01-10T15:12:14;7.40;85.10
55121;DHT22;41019;48.512;9.036;2023-01-10T15:14:41;7.30;85.50
55121;DHT22;41019;48.512;9.036;2023-01-10T15:17:13;7.20;87.60
55121;DHT22;41019;48.512;9.036;2023-01-10T15:19:43;7.20;88.90
55121;DHT22;41019;48.512;9.036;2023-01-10T15:22:31;7.10;89.60
55121;DHT22;41019;48.512;9.036;2023-01-10T15:27:26;7.00;90.30
55121;DHT22;41019;48.512;9.036;2023-01-10T15:29:52;6.90;90.00
55121;DHT22;41019;48.512;9.036;2023-01-10T15:32:34;6.80;90.70
55121;DHT22;41019;48.512;9.036;2023-01-10T15:35:05;6.80;91.00
55121;DHT22;41019;48.512;9.036;2023-01-10T15:37:37;6.70;91.90
55121;DHT22;41019;48.512;9.036;2023-01-10T15:40:18;6.70;92.10
55121;DHT22;41019;48.512;9.036;2023-01-10T15:42:44;6.60;92.30
55121;DHT22;41019;48.512;9.036;2023-01-10T15:45:32;6.60;92.20
55121;DHT22;41019;48.512;9.036;2023-01-10T15:48:02;6.50;92.30
55121;DHT22;41019;48.512;9.036;2023-01-10T15:50:32;6.40;92.50
55121;DHT22;41019;48.512;9.036;2023-01-10T15:53:06;6.40;92.70
55121;DHT22;41019;48.512;9.036;2023-01-10T15:55:48;6.30;92.70
55121;DHT22;41019;48.512;9.036;2023-01-10T15:58:26;6.30;93.10
55121;DHT22;41019;48.512;9.036;2023-01-10T16:00:55;6.20;93.30
55121;DHT22;41019;48.512;9.036;2023-01-10T16:03:32;6.20;93.40
55121;DHT22;41019;48.512;9.036;2023-01-10T16:05:59;6.10;93.60
55121;DHT22;41019;48.512;9.036;2023-01-10T16:08:35;6.00;93.70
55121;DHT22;41019;48.512;9.036;2023-01-10T16:11:31;6.00;94.10
55121;DHT22;41019;48.512;9.036;2023-01-10T16:14:19;5.90;94.20
55121;DHT22;41019;48.512;9.036;2023-01-10T16:16:45;5.90;94.30
55121;DHT22;41019;48.512;9.036;2023-01-10T16:19:11;5.80;94.50
55121;DHT22;41019;48.512;9.036;2023-01-10T16:21:47;5.80;94.40
55121;DHT22;41019;48.512;9.036;2023-01-10T16:24:21;5.70;94.60
55121;DHT22;41019;48.512;9.036;2023-01-10T16:26:49;5.70;94.50
55121;DHT22;41019;48.512;9.036;2023-01-10T16:29:15;5.60;94.50
55121;DHT22;41019;48.512;9.036;2023-01-10T16:31:41;5.60;94.50
55121;DHT22;41019;48.512;9.036;2023-01-10T16:34:08;5.50;94.50
55121;DHT22;41019;48.512;9.036;2023-01-10T16:36:34;5.50;94.60
55121;DHT22;41019;48.512;9.036;2023-01-10T16:39:07;5.50;95.00
55121;DHT22;41019;48.512;9.036;2023-01-10T16:41:36;5.40;95.30
55121;DHT22;41019;48.512;9.036;2023-01-10T16:44:22;5.40;95.30
55121;DHT22;41019;48.512;9.036;2023-01-10T16:46:48;5.40;95.40
55121;DHT22;41019;48.512;9.036;2023-01-10T16:49:15;5.30;95.50
55121;DHT22;41019;48.512;9.036;2023-01-10T16:51:42;5.30;95.60
55121;DHT22;41019;48.512;9.036;2023-01-10T16:54:17;5.30;95.70
55121;DHT22;41019;48.512;9.036;2023-01-10T16:56:45;5.30;96.00
55121;DHT22;41019;48.512;9.036;2023-01-10T16:59:13;5.30;96.20
55121;DHT22;41019;48.512;9.036;2023-01-10T17:01:48;5.30;96.30
55121;DHT22;41019;48.512;9.036;2023-01-10T17:04:23;5.80;96.20
55121;DHT22;41019;48.512;9.036;2023-01-10T17:06:49;5.20;95.80
55121;DHT22;41019;48.512;9.036;2023-01-10T17:12:14;5.30;96.30
55121;DHT22;41019;48.512;9.036;2023-01-10T17:14:42;5.20;96.70
55121;DHT22;41019;48.512;9.036;2023-01-10T17:17:09;5.30;96.70
55121;DHT22;41019;48.512;9.036;2023-01-10T17:19:35;5.80;97.00
55121;DHT22;41019;48.512;9.036;2023-01-10T17:22:03;5.20;96.90
55121;DHT22;41019;48.512;9.036;2023-01-10T17:24:28;5.20;96.90
55121;DHT22;41019;48.512;9.036;2023-01-10T17:26:54;5.10;96.90
55121;DHT22;41019;48.512;9.036;2023-01-10T17:29:20;5.10;96.70
55121;DHT22;41019;48.512;9.036;2023-01-10T17:31:45;5.10;96.50
55121;DHT22;41019;48.512;9.036;2023-01-10T17:34:11;5.00;96.50
55121;DHT22;41019;48.512;9.036;2023-01-10T17:36:37;5.00;96.50
55121;DHT22;41019;48.512;9.036;2023-01-10T17:39:05;5.00;96.30
55121;DHT22;41019;48.512;9.036;2023-01-10T17:41:33;5.00;96.40
55121;DHT22;41019;48.512;9.036;2023-01-10T17:43:59;4.90;96.10
55121;DHT22;41019;48.512;9.036;2023-01-10T17:46:25;4.90;96.30
55121;DHT22;41019;48.512;9.036;2023-01-10T17:48:51;4.90;96.20
55121;DHT22;41019;48.512;9.036;2023-01-10T17:51:17;4.90;96.20
55121;DHT22;41019;48.512;9.036;2023-01-10T17:53:43;4.90;96.20
55121;DHT22;41019;48.512;9.036;2023-01-10T17:56:10;4.90;96.00
55121;DHT22;41019;48.512;9.036;2023-01-10T17:58:36;4.80;96.10
55121;DHT22;41019;48.512;9.036;2023-01-10T18:01:02;4.80;96.00
55121;DHT22;41019;48.512;9.036;2023-01-10T18:03:29;4.60;95.70